sensor_id;sensor_type;location;lat;lon;timestamp;pressure;altitude;pressure_sealevel;temperature;humidity
78309;BME280;67566;42.022;21.356;2023-08-31T00:02:06;98077.91;;;20.47;60.86
78309;BME280;67566;42.022;21.356;2023-08-31T00:04:32;98076.75;;;20.45;60.96
78309;BME280;67566;42.022;21.356;2023-08-31T00:06:57;98071.34;;;20.41;62.01
78309;BME280;67566;42.022;21.356;2023-08-31T00:09:23;98074.44;;;20.43;61.81
78309;BME280;67566;42.022;21.356;2023-08-31T00:11:50;98075.56;;;20.42;62.47
78309;BME280;67566;42.022;21.356;2023-08-31T00:14:15;98080.97;;;20.42;62.36
78309;BME280;67566;42.022;21.356;2023-08-31T00:16:41;98083.28;;;20.36;62.09
78309;BME280;67566;42.022;21.356;2023-08-31T00:19:07;98081.25;;;20.23;63.38
78309;BME280;67566;42.022;21.356;2023-08-31T00:21:33;98071.19;;;20.19;62.66
78309;BME280;67566;42.022;21.356;2023-08-31T00:23:59;98073.84;;;20.12;62.95
78309;BME280;67566;42.022;21.356;2023-08-31T00:26:24;98072.31;;;20.11;62.96
78309;BME280;67566;42.022;21.356;2023-08-31T00:28:50;98080.81;;;20.10;62.53
78309;BME280;67566;42.022;21.356;2023-08-31T00:31:16;98080.81;;;20.10;63.31
78309;BME280;67566;42.022;21.356;2023-08-31T00:33:41;98087.38;;;20.12;62.22
78309;BME280;67566;42.022;21.356;2023-08-31T00:36:07;98092.78;;;20.16;62.52
78309;BME280;67566;42.022;21.356;2023-08-31T00:38:33;98090.50;;;20.22;62.49
78309;BME280;67566;42.022;21.356;2023-08-31T00:41:00;98105.22;;;20.28;63.03
78309;BME280;67566;42.022;21.356;2023-08-31T00:43:25;98109.06;;;20.27;63.28
78309;BME280;67566;42.022;21.356;2023-08-31T00:45:54;98115.28;;;20.27;63.13
78309;BME280;67566;42.022;21.356;2023-08-31T00:48:24;98112.97;;;20.29;63.96
78309;BME280;67566;42.022;21.356;2023-08-31T00:50:50;98106.00;;;20.28;63.58
78309;BME280;67566;42.022;21.356;2023-08-31T00:53:16;98115.28;;;20.27;64.00
78309;BME280;67566;42.022;21.356;2023-08-31T00:55:44;98113.75;;;20.30;64.75
78309;BME280;67566;42.022;21.356;2023-08-31T00:58:09;98119.53;;;20.28;63.70
78309;BME280;67566;42.022;21.356;2023-08-31T01:03:22;98134.94;;;20.24;64.82
78309;BME280;67566;42.022;21.356;2023-08-31T01:06:01;98138.81;;;20.27;64.77
78309;BME280;67566;42.022;21.356;2023-08-31T01:08:31;98147.72;;;20.27;65.38
78309;BME280;67566;42.022;21.356;2023-08-31T01:13:31;98148.88;;;20.26;65.11
78309;BME280;67566;42.022;21.356;2023-08-31T01:16:02;98153.91;;;20.28;65.09
78309;BME280;67566;42.022;21.356;2023-08-31T01:18:30;98157.00;;;20.30;65.02
78309;BME280;67566;42.022;21.356;2023-08-31T01:21:19;98157.41;;;20.32;65.56
78309;BME280;67566;42.022;21.356;2023-08-31T01:23:53;98154.69;;;20.32;64.87
78309;BME280;67566;42.022;21.356;2023-08-31T01:26:20;98148.50;;;20.31;64.89
78309;BME280;67566;42.022;21.356;2023-08-31T01:28:47;98152.41;;;20.34;64.78
78309;BME280;67566;42.022;21.356;2023-08-31T01:31:12;98153.19;;;20.34;65.55
78309;BME280;67566;42.022;21.356;2023-08-31T01:33:39;98150.47;;;20.34;65.55
78309;BME280;67566;42.022;21.356;2023-08-31T01:36:12;98151.22;;;20.31;65.82
78309;BME280;67566;42.022;21.356;2023-08-31T01:38:42;98157.00;;;20.30;65.33
78309;BME280;67566;42.022;21.356;2023-08-31T01:41:13;98159.31;;;20.28;66.06
78309;BME280;67566;42.022;21.356;2023-08-31T01:43:52;98165.44;;;20.21;66.73
78309;BME280;67566;42.022;21.356;2023-08-31T01:46:19;98168.81;;;20.11;65.36
78309;BME280;67566;42.022;21.356;2023-08-31T01:48:44;98178.41;;;20.01;66.72
78309;BME280;67566;42.022;21.356;2023-08-31T01:51:10;98178.72;;;19.92;67.70
78309;BME280;67566;42.022;21.356;2023-08-31T01:53:36;98193.75;;;19.90;67.26
78309;BME280;67566;42.022;21.356;2023-08-31T01:56:02;98195.31;;;19.91;67.53
78309;BME280;67566;42.022;21.356;2023-08-31T01:58:27;98201.81;;;19.86;69.03
78309;BME280;67566;42.022;21.356;2023-08-31T02:00:53;98201.72;;;19.75;68.54
78309;BME280;67566;42.022;21.356;2023-08-31T02:03:18;98207.84;;;19.72;67.37
78309;BME280;67566;42.022;21.356;2023-08-31T02:05:44;98207.50;;;19.74;67.54
78309;BME280;67566;42.022;21.356;2023-08-31T02:08:09;98207.50;;;19.74;68.28
78309;BME280;67566;42.022;21.356;2023-08-31T02:10:35;98218.28;;;19.74;69.02
78309;BME280;67566;42.022;21.356;2023-08-31T02:13:00;98211.69;;;19.71;69.35
78309;BME280;67566;42.022;21.356;2023-08-31T02:15:26;98212.44;;;19.68;69.42
78309;BME280;67566;42.022;21.356;2023-08-31T02:17:52;98212.00;;;19.62;69.50
78309;BME280;67566;42.022;21.356;2023-08-31T02:20:18;98200.41;;;19.62;70.05
78309;BME280;67566;42.022;21.356;2023-08-31T02:22:45;98210.06;;;19.63;69.59
78309;BME280;67566;42.022;21.356;2023-08-31T02:25:14;98209.31;;;19.66;70.05
78309;BME280;67566;42.022;21.356;2023-08-31T02:27:41;98192.75;;;19.68;71.20
78309;BME280;67566;42.022;21.356;2023-08-31T02:32:54;98189.28;;;19.71;71.41
78309;BME280;67566;42.022;21.356;2023-08-31T02:35:19;98187.75;;;19.70;72.55
78309;BME280;67566;42.022;21.356;2023-08-31T02:37:45;98186.19;;;19.69;72.47
78309;BME280;67566;42.022;21.356;2023-08-31T02:40:10;98182.31;;;19.66;72.92
78309;BME280;67566;42.022;21.356;2023-08-31T02:42:37;98173.06;;;19.67;72.20
78309;BME280;67566;42.022;21.356;2023-08-31T02:45:02;98159.19;;;19.69;73.12
78309;BME280;67566;42.022;21.356;2023-08-31T02:47:28;98159.19;;;19.69;73.23
78309;BME280;67566;42.022;21.356;2023-08-31T02:49:54;98147.59;;;19.68;72.29
78309;BME280;67566;42.022;21.356;2023-08-31T02:52:19;98153.38;;;19.67;72.79
78309;BME280;67566;42.022;21.356;2023-08-31T02:54:47;98164.16;;;19.63;73.44
78309;BME280;67566;42.022;21.356;2023-08-31T02:57:13;98170.22;;;19.53;73.12
78309;BME280;67566;42.022;21.356;2023-08-31T02:59:38;98171.31;;;19.48;74.26
78309;BME280;67566;42.022;21.356;2023-08-31T03:02:04;98171.28;;;19.44;74.34
78309;BME280;67566;42.022;21.356;2023-08-31T03:04:30;98166.22;;;19.39;74.31
78309;BME280;67566;42.022;21.356;2023-08-31T03:06:56;98165.78;;;19.34;74.59
78309;BME280;67566;42.022;21.356;2023-08-31T03:09:21;98163.03;;;19.30;74.12
78309;BME280;67566;42.022;21.356;2023-08-31T03:11:47;98164.56;;;19.28;74.04
78309;BME280;67566;42.022;21.356;2023-08-31T03:14:12;98152.56;;;19.25;74.38
78309;BME280;67566;42.022;21.356;2023-08-31T03:16:38;98158.75;;;19.26;74.94
78309;BME280;67566;42.022;21.356;2023-08-31T03:19:04;98153.72;;;19.24;74.33
78309;BME280;67566;42.022;21.356;2023-08-31T03:21:30;98155.63;;;19.23;73.68
78309;BME280;67566;42.022;21.356;2023-08-31T03:23:59;98145.16;;;19.18;73.49
78309;BME280;67566;42.022;21.356;2023-08-31T03:26:27;98141.66;;;19.14;73.99
78309;BME280;67566;42.022;21.356;2023-08-31T03:28:53;98141.63;;;19.11;74.58
78309;BME280;67566;42.022;21.356;2023-08-31T03:31:18;98138.88;;;19.07;74.97
78309;BME280;67566;42.022;21.356;2023-08-31T03:33:43;98141.13;;;19.01;74.71
78309;BME280;67566;42.022;21.356;2023-08-31T03:36:09;98144.56;;;18.98;74.21
78309;BME280;67566;42.022;21.356;2023-08-31T03:38:34;98139.53;;;18.97;73.89
78309;BME280;67566;42.022;21.356;2023-08-31T03:41:03;98140.22;;;18.90;74.05
78309;BME280;67566;42.022;21.356;2023-08-31T03:43:29;98144.03;;;18.85;74.84
78309;BME280;67566;42.022;21.356;2023-08-31T03:45:56;98156.19;;;18.76;74.62
78309;BME280;67566;42.022;21.356;2023-08-31T03:48:25;98152.97;;;18.63;75.24
78309;BME280;67566;42.022;21.356;2023-08-31T03:50:51;98159.28;;;18.47;75.62
78309;BME280;67566;42.022;21.356;2023-08-31T03:53:17;98164.63;;;18.44;75.33
78309;BME280;67566;42.022;21.356;2023-08-31T03:55:42;98159.91;;;18.37;75.06
78309;BME280;67566;42.022;21.356;2023-08-31T03:58:08;98152.13;;;18.32;75.38
78309;BME280;67566;42.022;21.356;2023-08-31T04:00:33;98160.00;;;18.18;76.20
78309;BME280;67566;42.022;21.356;2023-08-31T04:02:59;98158.69;;;18.08;76.71
78309;BME280;67566;42.022;21.356;2023-08-31T04:05:24;98164.53;;;18.14;76.16
78309;BME280;67566;42.022;21.356;2023-08-31T04:07:50;98163.47;;;18.18;75.80
78309;BME280;67566;42.022;21.356;2023-08-31T04:10:15;98165.50;;;18.25;76.75
78309;BME280;67566;42.022;21.356;2023-08-31T04:12:41;98157.09;;;18.30;76.45
78309;BME280;67566;42.022;21.356;2023-08-31T04:15:08;98157.16;;;18.34;76.48
78309;BME280;67566;42.022;21.356;2023-08-31T04:17:34;98173.03;;;18.39;77.00
78309;BME280;67566;42.022;21.356;2023-08-31T04:19:59;98178.47;;;18.42;76.43
78309;BME280;67566;42.022;21.356;2023-08-31T04:22:26;98182.34;;;18.45;76.04
78309;BME280;67566;42.022;21.356;2023-08-31T04:24:52;98183.56;;;18.47;76.07
78309;BME280;67566;42.022;21.356;2023-08-31T04:27:18;98185.13;;;18.52;75.94
78309;BME280;67566;42.022;21.356;2023-08-31T04:29:43;98190.59;;;18.56;76.41
78309;BME280;67566;42.022;21.356;2023-08-31T04:32:09;98190.22;;;18.57;75.55
78309;BME280;67566;42.022;21.356;2023-08-31T04:34:34;98187.56;;;18.61;75.94
78309;BME280;67566;42.022;21.356;2023-08-31T04:37:00;98188.47;;;18.68;76.54
78309;BME280;67566;42.022;21.356;2023-08-31T04:39:26;98206.25;;;18.73;76.21
78309;BME280;67566;42.022;21.356;2023-08-31T04:41:52;98199.34;;;18.76;76.81
78309;BME280;67566;42.022;21.356;2023-08-31T04:44:17;98201.31;;;18.79;76.88
78309;BME280;67566;42.022;21.356;2023-08-31T04:46:44;98201.03;;;18.84;76.67
78309;BME280;67566;42.022;21.356;2023-08-31T04:49:09;98214.94;;;18.86;76.88
78309;BME280;67566;42.022;21.356;2023-08-31T04:51:35;98212.28;;;18.90;77.19
78309;BME280;67566;42.022;21.356;2023-08-31T04:54:07;98210.00;;;18.92;76.80
78309;BME280;67566;42.022;21.356;2023-08-31T04:56:33;98216.97;;;18.93;77.33
78309;BME280;67566;42.022;21.356;2023-08-31T04:59:00;98228.91;;;18.95;76.43
78309;BME280;67566;42.022;21.356;2023-08-31T05:01:25;98230.91;;;18.98;75.91
78309;BME280;67566;42.022;21.356;2023-08-31T05:03:51;98241.34;;;19.00;76.86
78309;BME280;67566;42.022;21.356;2023-08-31T05:06:17;98237.88;;;18.99;76.48
78309;BME280;67566;42.022;21.356;2023-08-31T05:08:42;98237.09;;;19.02;76.31
78309;BME280;67566;42.022;21.356;2023-08-31T05:11:08;98243.00;;;19.08;75.87
78309;BME280;67566;42.022;21.356;2023-08-31T05:13:34;98242.63;;;19.13;76.52
78309;BME280;67566;42.022;21.356;2023-08-31T05:16:13;98236.16;;;19.18;75.84
78309;BME280;67566;42.022;21.356;2023-08-31T05:18:41;98243.16;;;19.22;76.22
78309;BME280;67566;42.022;21.356;2023-08-31T05:21:06;98242.84;;;19.28;75.90
78309;BME280;67566;42.022;21.356;2023-08-31T05:23:32;98252.94;;;19.34;75.68
78309;BME280;67566;42.022;21.356;2023-08-31T05:25:58;98252.19;;;19.37;75.49
78309;BME280;67566;42.022;21.356;2023-08-31T05:28:24;98242.28;;;19.45;75.38
78309;BME280;67566;42.022;21.356;2023-08-31T05:30:51;98251.97;;;19.50;74.70
78309;BME280;67566;42.022;21.356;2023-08-31T05:33:20;98255.50;;;19.54;74.88
78309;BME280;67566;42.022;21.356;2023-08-31T05:35:47;98252.00;;;19.53;74.13
78309;BME280;67566;42.022;21.356;2023-08-31T05:38:13;98254.72;;;19.57;74.58
78309;BME280;67566;42.022;21.356;2023-08-31T05:40:38;98259.03;;;19.61;73.81
78309;BME280;67566;42.022;21.356;2023-08-31T05:43:04;98258.31;;;19.65;74.13
78309;BME280;67566;42.022;21.356;2023-08-31T05:45:33;98264.56;;;19.72;73.63
78309;BME280;67566;42.022;21.356;2023-08-31T05:47:58;98255.41;;;19.80;73.88
78309;BME280;67566;42.022;21.356;2023-08-31T05:50:24;98270.97;;;19.91;73.38
78309;BME280;67566;42.022;21.356;2023-08-31T05:52:50;98266.41;;;19.98;73.23
78309;BME280;67566;42.022;21.356;2023-08-31T05:55:16;98260.31;;;20.09;73.86
78309;BME280;67566;42.022;21.356;2023-08-31T05:57:41;98272.00;;;20.16;73.53
78309;BME280;67566;42.022;21.356;2023-08-31T06:00:07;98282.06;;;20.23;72.98
78309;BME280;67566;42.022;21.356;2023-08-31T06:02:33;98283.69;;;20.31;72.47
78309;BME280;67566;42.022;21.356;2023-08-31T06:05:01;98277.94;;;20.36;73.72
78309;BME280;67566;42.022;21.356;2023-08-31T06:07:26;98282.25;;;20.41;72.83
78309;BME280;67566;42.022;21.356;2023-08-31T06:09:54;98275.31;;;20.44;73.02
78309;BME280;67566;42.022;21.356;2023-08-31T06:12:20;98282.00;;;20.61;73.61
78309;BME280;67566;42.022;21.356;2023-08-31T06:14:45;98277.63;;;20.90;73.43
78309;BME280;67566;42.022;21.356;2023-08-31T06:17:11;98281.94;;;21.09;72.49
78309;BME280;67566;42.022;21.356;2023-08-31T06:19:38;98283.53;;;21.13;71.85
78309;BME280;67566;42.022;21.356;2023-08-31T06:22:04;98281.19;;;21.12;70.83
78309;BME280;67566;42.022;21.356;2023-08-31T06:24:29;98277.31;;;21.06;70.65
78309;BME280;67566;42.022;21.356;2023-08-31T06:26:55;98291.59;;;20.99;70.41
78309;BME280;67566;42.022;21.356;2023-08-31T06:29:22;98289.25;;;21.01;70.40
78309;BME280;67566;42.022;21.356;2023-08-31T06:31:48;98288.22;;;21.20;69.84
78309;BME280;67566;42.022;21.356;2023-08-31T06:34:13;98286.00;;;21.44;68.60
78309;BME280;67566;42.022;21.356;2023-08-31T06:36:38;98295.78;;;21.63;69.06
78309;BME280;67566;42.022;21.356;2023-08-31T06:39:06;98302.44;;;21.87;68.48
78309;BME280;67566;42.022;21.356;2023-08-31T06:41:31;98298.22;;;22.00;67.25
78309;BME280;67566;42.022;21.356;2023-08-31T06:43:57;98296.31;;;22.19;66.42
78309;BME280;67566;42.022;21.356;2023-08-31T06:46:22;98308.75;;;22.38;66.22
78309;BME280;67566;42.022;21.356;2023-08-31T06:48:48;98311.88;;;22.58;65.38
78309;BME280;67566;42.022;21.356;2023-08-31T06:51:14;98313.81;;;22.75;65.01
78309;BME280;67566;42.022;21.356;2023-08-31T06:53:41;98310.69;;;22.91;64.07
78309;BME280;67566;42.022;21.356;2023-08-31T06:56:07;98317.69;;;23.07;64.00
78309;BME280;67566;42.022;21.356;2023-08-31T06:58:32;98325.00;;;23.28;63.75
78309;BME280;67566;42.022;21.356;2023-08-31T07:00:58;98315.63;;;23.43;62.99
78309;BME280;67566;42.022;21.356;2023-08-31T07:03:23;98327.22;;;23.58;62.99
78309;BME280;67566;42.022;21.356;2023-08-31T07:05:49;98321.84;;;23.47;62.14
78309;BME280;67566;42.022;21.356;2023-08-31T07:08:14;98326.88;;;23.49;61.27
78309;BME280;67566;42.022;21.356;2023-08-31T07:10:40;98325.25;;;23.73;61.03
78309;BME280;67566;42.022;21.356;2023-08-31T07:13:05;98336.81;;;23.91;61.09
78309;BME280;67566;42.022;21.356;2023-08-31T07:15:31;98337.13;;;24.08;60.37
78309;BME280;67566;42.022;21.356;2023-08-31T07:17:56;98333.16;;;24.20;60.40
78309;BME280;67566;42.022;21.356;2023-08-31T07:20:22;98335.16;;;24.12;59.51
78309;BME280;67566;42.022;21.356;2023-08-31T07:22:48;98339.44;;;24.09;59.64
78309;BME280;67566;42.022;21.356;2023-08-31T07:25:13;98333.91;;;24.27;59.09
78309;BME280;67566;42.022;21.356;2023-08-31T07:27:39;98337.72;;;24.34;58.25
78309;BME280;67566;42.022;21.356;2023-08-31T07:30:05;98335.75;;;24.41;58.91
78309;BME280;67566;42.022;21.356;2023-08-31T07:32:31;98339.44;;;24.09;59.12
78309;BME280;67566;42.022;21.356;2023-08-31T07:34:57;98337.59;;;23.88;59.53
78309;BME280;67566;42.022;21.356;2023-08-31T07:37:22;98341.13;;;23.85;58.49
78309;BME280;67566;42.022;21.356;2023-08-31T07:39:48;98343.06;;;23.81;58.62
78309;BME280;67566;42.022;21.356;2023-08-31T07:42:14;98339.22;;;23.71;59.01
78309;BME280;67566;42.022;21.356;2023-08-31T07:44:42;98340.44;;;23.56;58.36
78309;BME280;67566;42.022;21.356;2023-08-31T07:47:09;98338.84;;;23.73;58.72
78309;BME280;67566;42.022;21.356;2023-08-31T07:49:35;98339.16;;;23.89;58.58
78309;BME280;67566;42.022;21.356;2023-08-31T07:52:00;98337.13;;;24.08;58.39
78309;BME280;67566;42.022;21.356;2023-08-31T07:54:26;98335.56;;;24.07;57.92
78309;BME280;67566;42.022;21.356;2023-08-31T07:56:51;98332.31;;;24.30;58.51
78309;BME280;67566;42.022;21.356;2023-08-31T07:59:17;98342.28;;;24.55;57.92
78309;BME280;67566;42.022;21.356;2023-08-31T08:01:44;98338.25;;;24.74;57.21
78309;BME280;67566;42.022;21.356;2023-08-31T08:04:11;98334.19;;;24.93;56.72
78309;BME280;67566;42.022;21.356;2023-08-31T08:06:37;98336.38;;;25.09;56.78
78309;BME280;67566;42.022;21.356;2023-08-31T08:09:03;98334.69;;;25.22;56.19
78309;BME280;67566;42.022;21.356;2023-08-31T08:11:30;98336.06;;;25.41;55.88
78309;BME280;67566;42.022;21.356;2023-08-31T08:13:56;98335.50;;;25.57;55.86
78309;BME280;67566;42.022;21.356;2023-08-31T08:16:22;98330.38;;;25.62;54.20
78309;BME280;67566;42.022;21.356;2023-08-31T08:18:47;98331.88;;;25.67;53.54
78309;BME280;67566;42.022;21.356;2023-08-31T08:21:13;98329.00;;;25.78;53.49
78309;BME280;67566;42.022;21.356;2023-08-31T08:23:38;98321.03;;;25.94;53.10
78309;BME280;67566;42.022;21.356;2023-08-31T08:26:04;98322.06;;;26.04;52.66
78309;BME280;67566;42.022;21.356;2023-08-31T08:28:29;98317.28;;;26.12;52.27
78309;BME280;67566;42.022;21.356;2023-08-31T08:30:55;98319.84;;;26.23;52.72
78309;BME280;67566;42.022;21.356;2023-08-31T08:33:20;98323.56;;;26.36;52.24
78309;BME280;67566;42.022;21.356;2023-08-31T08:35:46;98319.81;;;26.50;51.95
78309;BME280;67566;42.022;21.356;2023-08-31T08:38:12;98324.31;;;26.64;51.49
78309;BME280;67566;42.022;21.356;2023-08-31T08:40:37;98322.97;;;26.75;50.30
78309;BME280;67566;42.022;21.356;2023-08-31T08:43:06;98315.06;;;26.81;49.05
78309;BME280;67566;42.022;21.356;2023-08-31T08:45:37;98314.56;;;26.86;49.45
78309;BME280;67566;42.022;21.356;2023-08-31T08:48:07;98314.38;;;26.97;49.40
78309;BME280;67566;42.022;21.356;2023-08-31T08:50:34;98321.34;;;27.02;49.23
78309;BME280;67566;42.022;21.356;2023-08-31T08:53:04;98321.06;;;27.16;48.50
78309;BME280;67566;42.022;21.356;2023-08-31T08:55:30;98317.47;;;26.99;47.38
78309;BME280;67566;42.022;21.356;2023-08-31T08:57:57;98309.91;;;27.07;47.19
78309;BME280;67566;42.022;21.356;2023-08-31T09:00:23;98308.81;;;27.24;47.88
78309;BME280;67566;42.022;21.356;2023-08-31T09:02:48;98312.06;;;27.39;47.42
78309;BME280;67566;42.022;21.356;2023-08-31T09:05:14;98312.97;;;27.53;47.27
78309;BME280;67566;42.022;21.356;2023-08-31T09:10:39;98297.53;;;27.62;45.99
78309;BME280;67566;42.022;21.356;2023-08-31T09:13:08;98291.03;;;27.56;45.19
78309;BME280;67566;42.022;21.356;2023-08-31T09:15:43;98301.88;;;27.60;44.88
78309;BME280;67566;42.022;21.356;2023-08-31T09:18:15;98292.75;;;27.66;44.49
78309;BME280;67566;42.022;21.356;2023-08-31T09:20:47;98294.63;;;27.69;44.71
78309;BME280;67566;42.022;21.356;2023-08-31T09:23:16;98284.41;;;27.74;43.79
78309;BME280;67566;42.022;21.356;2023-08-31T09:25:52;98287.31;;;27.83;43.39
78309;BME280;67566;42.022;21.356;2023-08-31T09:28:23;98283.09;;;27.98;42.92
78309;BME280;67566;42.022;21.356;2023-08-31T09:30:50;98283.53;;;28.13;42.42
78309;BME280;67566;42.022;21.356;2023-08-31T09:33:18;98273.38;;;28.30;41.95
78309;BME280;67566;42.022;21.356;2023-08-31T09:35:55;98276.53;;;28.29;41.99
78309;BME280;67566;42.022;21.356;2023-08-31T09:38:21;98272.50;;;28.50;41.93
78309;BME280;67566;42.022;21.356;2023-08-31T09:40:47;98271.16;;;28.58;41.56
78309;BME280;67566;42.022;21.356;2023-08-31T09:43:19;98276.88;;;28.80;41.77
78309;BME280;67566;42.022;21.356;2023-08-31T09:45:46;98268.91;;;28.98;41.40
78309;BME280;67566;42.022;21.356;2023-08-31T09:48:13;98275.50;;;29.17;40.88
78309;BME280;67566;42.022;21.356;2023-08-31T09:50:43;98276.53;;;29.36;40.56
78309;BME280;67566;42.022;21.356;2023-08-31T09:53:10;98270.72;;;29.47;39.06
78309;BME280;67566;42.022;21.356;2023-08-31T09:55:39;98268.78;;;29.61;38.03
78309;BME280;67566;42.022;21.356;2023-08-31T09:58:20;98272.25;;;29.78;37.34
78309;BME280;67566;42.022;21.356;2023-08-31T10:00:46;98254.09;;;29.93;36.73
78309;BME280;67566;42.022;21.356;2023-08-31T10:03:13;98259.91;;;30.08;35.57
78309;BME280;67566;42.022;21.356;2023-08-31T10:05:44;98265.63;;;30.01;35.37
78309;BME280;67566;42.022;21.356;2023-08-31T10:08:14;98263.13;;;29.93;35.72
78309;BME280;67566;42.022;21.356;2023-08-31T10:10:40;98261.59;;;29.80;34.12
78309;BME280;67566;42.022;21.356;2023-08-31T10:13:07;98255.94;;;29.58;34.41
78309;BME280;67566;42.022;21.356;2023-08-31T10:15:34;98261.53;;;29.54;35.21
78309;BME280;67566;42.022;21.356;2023-08-31T10:18:01;98261.38;;;29.32;35.74
78309;BME280;67566;42.022;21.356;2023-08-31T10:20:28;98264.84;;;29.19;35.88
78309;BME280;67566;42.022;21.356;2023-08-31T10:22:58;98260.06;;;29.07;36.17
78309;BME280;67566;42.022;21.356;2023-08-31T10:25:23;98267.13;;;28.92;36.08
78309;BME280;67566;42.022;21.356;2023-08-31T10:27:49;98268.28;;;28.78;35.68
78309;BME280;67566;42.022;21.356;2023-08-31T10:33:01;98274.03;;;28.51;33.33
78309;BME280;67566;42.022;21.356;2023-08-31T10:35:50;98280.13;;;28.25;32.80
78309;BME280;67566;42.022;21.356;2023-08-31T10:40:41;98286.81;;;27.88;33.46
78309;BME280;67566;42.022;21.356;2023-08-31T10:43:16;98289.09;;;27.73;33.10
78309;BME280;67566;42.022;21.356;2023-08-31T10:45:45;98299.16;;;27.60;32.84
78309;BME280;67566;42.022;21.356;2023-08-31T10:48:10;98297.81;;;27.48;31.91
78309;BME280;67566;42.022;21.356;2023-08-31T10:50:42;98301.59;;;27.34;32.79
78309;BME280;67566;42.022;21.356;2023-08-31T10:53:09;98300.63;;;27.24;32.65
78309;BME280;67566;42.022;21.356;2023-08-31T10:55:52;98301.66;;;27.10;32.82
78309;BME280;67566;42.022;21.356;2023-08-31T10:58:18;98297.50;;;27.02;32.59
78309;BME280;67566;42.022;21.356;2023-08-31T11:01:01;98295.72;;;26.92;33.40
78309;BME280;67566;42.022;21.356;2023-08-31T11:03:29;98300.56;;;26.84;33.50
78309;BME280;67566;42.022;21.356;2023-08-31T11:05:58;98306.16;;;26.77;32.98
78309;BME280;67566;42.022;21.356;2023-08-31T11:08:24;98303.91;;;26.72;33.89
78309;BME280;67566;42.022;21.356;2023-08-31T11:10:51;98305.19;;;26.64;33.79
78309;BME280;67566;42.022;21.356;2023-08-31T11:13:18;98304.03;;;26.61;34.73
78309;BME280;67566;42.022;21.356;2023-08-31T11:15:47;98317.75;;;26.57;35.09
78309;BME280;67566;42.022;21.356;2023-08-31T11:18:13;98318.22;;;26.52;34.36
78309;BME280;67566;42.022;21.356;2023-08-31T11:20:42;98320.59;;;26.50;35.20
78309;BME280;67566;42.022;21.356;2023-08-31T11:23:07;98320.25;;;26.48;34.80
78309;BME280;67566;42.022;21.356;2023-08-31T11:25:33;98319.88;;;26.46;34.61
78309;BME280;67566;42.022;21.356;2023-08-31T11:28:03;98320.00;;;26.39;34.80
78309;BME280;67566;42.022;21.356;2023-08-31T11:30:31;98317.31;;;26.35;35.20
78309;BME280;67566;42.022;21.356;2023-08-31T11:33:10;98311.94;;;26.32;36.01
78309;BME280;67566;42.022;21.356;2023-08-31T11:35:43;98317.44;;;26.28;35.68
78309;BME280;67566;42.022;21.356;2023-08-31T11:38:10;98319.03;;;26.26;35.87
78309;BME280;67566;42.022;21.356;2023-08-31T11:40:36;98326.50;;;26.22;36.11
78309;BME280;67566;42.022;21.356;2023-08-31T11:43:04;98322.28;;;26.17;36.12
78309;BME280;67566;42.022;21.356;2023-08-31T11:45:30;98321.16;;;26.14;35.87
78309;BME280;67566;42.022;21.356;2023-08-31T11:47:57;98317.31;;;26.08;36.07
78309;BME280;67566;42.022;21.356;2023-08-31T11:50:24;98316.16;;;26.09;36.84
78309;BME280;67566;42.022;21.356;2023-08-31T11:52:53;98319.69;;;26.06;36.29
78309;BME280;67566;42.022;21.356;2023-08-31T11:55:19;98318.53;;;26.07;36.38
78309;BME280;67566;42.022;21.356;2023-08-31T11:57:50;98312.69;;;26.05;36.38
78309;BME280;67566;42.022;21.356;2023-08-31T12:00:19;98316.63;;;26.04;36.19
78309;BME280;67566;42.022;21.356;2023-08-31T12:02:46;98315.06;;;26.03;36.05
78309;BME280;67566;42.022;21.356;2023-08-31T12:05:14;98321.31;;;26.04;35.59
78309;BME280;67566;42.022;21.356;2023-08-31T12:07:40;98312.72;;;26.02;36.08
78309;BME280;67566;42.022;21.356;2023-08-31T12:10:07;98314.25;;;26.06;35.76
78309;BME280;67566;42.022;21.356;2023-08-31T12:12:33;98303.63;;;26.12;35.94
78309;BME280;67566;42.022;21.356;2023-08-31T12:15:01;98311.72;;;26.19;36.30
78309;BME280;67566;42.022;21.356;2023-08-31T12:17:29;98311.97;;;26.28;36.38
78309;BME280;67566;42.022;21.356;2023-08-31T12:20:05;98310.66;;;26.36;36.73
78309;BME280;67566;42.022;21.356;2023-08-31T12:22:31;98321.41;;;26.47;36.38
78309;BME280;67566;42.022;21.356;2023-08-31T12:24:56;98327.13;;;26.56;35.10
78309;BME280;67566;42.022;21.356;2023-08-31T12:27:22;98325.13;;;26.61;35.34
78309;BME280;67566;42.022;21.356;2023-08-31T12:29:47;98325.13;;;26.61;34.76
78309;BME280;67566;42.022;21.356;2023-08-31T12:32:14;98324.00;;;26.58;35.88
78309;BME280;67566;42.022;21.356;2023-08-31T12:34:40;98323.25;;;26.54;35.21
78309;BME280;67566;42.022;21.356;2023-08-31T12:37:05;98329.13;;;26.52;35.42
78309;BME280;67566;42.022;21.356;2023-08-31T12:39:31;98323.72;;;26.49;35.85
78309;BME280;67566;42.022;21.356;2023-08-31T12:41:57;98333.53;;;26.46;35.93
78309;BME280;67566;42.022;21.356;2023-08-31T12:44:22;98322.72;;;26.39;35.42
78309;BME280;67566;42.022;21.356;2023-08-31T12:46:50;98323.97;;;26.34;35.92
78309;BME280;67566;42.022;21.356;2023-08-31T12:49:16;98329.41;;;26.34;36.36
78309;BME280;67566;42.022;21.356;2023-08-31T12:51:41;98332.56;;;26.33;35.97
78309;BME280;67566;42.022;21.356;2023-08-31T12:54:07;98334.13;;;26.34;36.58
78309;BME280;67566;42.022;21.356;2023-08-31T12:56:33;98344.63;;;26.35;36.15
78309;BME280;67566;42.022;21.356;2023-08-31T12:58:58;98336.44;;;26.35;36.64
78309;BME280;67566;42.022;21.356;2023-08-31T13:01:24;98343.84;;;26.35;36.12
78309;BME280;67566;42.022;21.356;2023-08-31T13:03:50;98345.50;;;26.29;35.93
78309;BME280;67566;42.022;21.356;2023-08-31T13:06:17;98360.72;;;26.26;36.51